createdAt,value
2022-12-20T00:00:32.762Z,92.1
2022-12-20T00:01:36.827Z,92.1
2022-12-20T00:02:41.426Z,92.1
2022-12-20T00:03:44.417Z,92.2
2022-12-20T00:04:48.158Z,92.1
2022-12-20T00:05:51.631Z,92.2
2022-12-20T00:06:55.439Z,92.2
2022-12-20T00:07:58.903Z,92.3
2022-12-20T00:09:02.941Z,92.2
2022-12-20T00:10:06.373Z,92.3
2022-12-20T00:11:09.863Z,92.2
2022-12-20T00:12:12.932Z,92.2
2022-12-20T00:13:16.723Z,92.1
2022-12-20T00:14:20.010Z,92
2022-12-20T00:15:23.499Z,91.9
2022-12-20T00:16:26.963Z,91.8
2022-12-20T00:17:30.287Z,91.8
2022-12-20T00:18:32.883Z,91.9
2022-12-20T00:19:36.597Z,91.9
2022-12-20T00:20:39.163Z,91.9
2022-12-20T00:21:41.713Z,91.9
2022-12-20T00:22:44.816Z,91.8
2022-12-20T00:23:48.061Z,91.7
2022-12-20T00:24:51.178Z,91.5
2022-12-20T00:25:54.044Z,91.7
2022-12-20T00:26:57.129Z,91.8
2022-12-20T00:28:00.127Z,91.9
2022-12-20T00:29:03.615Z,92
2022-12-20T00:30:07.403Z,92
2022-12-20T00:31:11.014Z,91.9
2022-12-20T00:32:14.087Z,91.8
2022-12-20T00:33:17.913Z,91.9
2022-12-20T00:34:21.098Z,91.9
2022-12-20T00:35:24.853Z,91.7
2022-12-20T00:36:28.418Z,91.6
2022-12-20T00:37:31.487Z,91.6
2022-12-20T00:38:35.145Z,91.6
2022-12-20T00:39:38.261Z,91.5
2022-12-20T00:40:41.421Z,91.5
2022-12-20T00:41:59.728Z,91.9
2022-12-20T00:43:03.418Z,92.1
2022-12-20T00:44:07.523Z,92.1
2022-12-20T00:45:11.237Z,92
2022-12-20T00:46:14.055Z,92
2022-12-20T00:47:17.276Z,91.9
2022-12-20T00:48:20.201Z,92
2022-12-20T00:49:38.250Z,92.3
2022-12-20T00:50:42.015Z,92.3
2022-12-20T00:51:45.113Z,92.2
2022-12-20T00:52:48.310Z,92.2
2022-12-20T00:53:51.692Z,92.1
2022-12-20T00:54:55.858Z,92
2022-12-20T00:55:59.905Z,92
2022-12-20T00:57:02.157Z,92
2022-12-20T00:58:05.628Z,91.9
2022-12-20T00:59:09.405Z,91.9
2022-12-20T01:00:12.482Z,91.9
2022-12-20T01:01:15.648Z,91.8
2022-12-20T01:02:19.687Z,91.9
2022-12-20T01:03:24.651Z,91.7
2022-12-20T01:04:28.511Z,91.6
2022-12-20T01:05:31.222Z,91.6
2022-12-20T01:06:33.696Z,91.6
2022-12-20T01:07:36.888Z,91.6
2022-12-20T01:08:40.244Z,91.7
2022-12-20T01:09:43.093Z,91.6
2022-12-20T01:10:46.792Z,91.7
2022-12-20T01:11:50.129Z,91.5
2022-12-20T01:12:52.308Z,91.4
2022-12-20T01:13:55.424Z,91.4
2022-12-20T01:14:58.673Z,91.4
2022-12-20T01:16:02.374Z,91.4
2022-12-20T01:17:05.981Z,91.4
2022-12-20T01:18:09.079Z,91.4
2022-12-20T01:19:13.144Z,91.5
2022-12-20T01:20:16.371Z,91.4
2022-12-20T01:21:19.428Z,91.4
2022-12-20T01:22:22.904Z,91.4
2022-12-20T01:23:25.737Z,91.3
2022-12-20T01:24:28.842Z,91.3
2022-12-20T01:25:32.269Z,91.4
2022-12-20T01:26:35.072Z,91.4
2022-12-20T01:27:38.262Z,91.5
2022-12-20T01:28:42.057Z,91.4
2022-12-20T01:29:45.135Z,91.2
2022-12-20T01:30:49.163Z,91.2
2022-12-20T01:31:52.564Z,91.1
2022-12-20T01:32:56.488Z,91.1
2022-12-20T01:33:59.630Z,91
2022-12-20T01:35:02.497Z,91
2022-12-20T01:36:05.224Z,91
2022-12-20T01:37:08.971Z,90.9
2022-12-20T01:38:12.142Z,91
2022-12-20T01:39:15.601Z,91
2022-12-20T01:40:19.332Z,91.1
2022-12-20T01:41:22.412Z,91.1
2022-12-20T01:42:26.234Z,90.9
2022-12-20T01:43:29.031Z,91
2022-12-20T01:44:31.829Z,90.8
2022-12-20T01:45:34.483Z,90.7
2022-12-20T01:46:38.346Z,90.8
2022-12-20T01:47:40.764Z,90.8
2022-12-20T01:48:44.384Z,90.9
2022-12-20T01:49:47.199Z,91.1
2022-12-20T01:50:50.317Z,91.4
2022-12-20T01:51:53.697Z,91.5
2022-12-20T01:52:57.440Z,91.4
2022-12-20T01:54:01.523Z,91.3
2022-12-20T01:55:04.259Z,91.4
2022-12-20T01:56:07.389Z,91.4
2022-12-20T01:57:11.225Z,91.3
2022-12-20T01:58:14.374Z,91.2
2022-12-20T01:59:18.060Z,91.4
2022-12-20T02:00:21.699Z,91.5
2022-12-20T02:01:26.319Z,91.4
2022-12-20T02:02:31.136Z,91.6
2022-12-20T02:03:34.803Z,91.6
2022-12-20T02:04:37.447Z,91.6
2022-12-20T02:05:40.587Z,91.6
2022-12-20T02:06:43.443Z,91.6
2022-12-20T02:07:46.590Z,91.5
2022-12-20T02:08:49.971Z,91.7
2022-12-20T02:09:52.772Z,91.6
2022-12-20T02:10:55.863Z,91.8
2022-12-20T02:11:59.274Z,91.8
2022-12-20T02:13:02.423Z,91.8
2022-12-20T02:14:06.220Z,91.7
2022-12-20T02:15:09.302Z,91.7
2022-12-20T02:16:12.601Z,91.6
2022-12-20T02:17:15.772Z,91.5
2022-12-20T02:18:19.517Z,91.6
2022-12-20T02:19:23.221Z,91.5
2022-12-20T02:20:26.208Z,91.6
2022-12-20T02:21:28.713Z,91.7
2022-12-20T02:22:32.080Z,91.8
2022-12-20T02:23:35.371Z,91.7
2022-12-20T02:24:38.821Z,91.7
2022-12-20T02:25:41.839Z,91.7
2022-12-20T02:26:44.437Z,91.8
2022-12-20T02:27:47.863Z,91.8
2022-12-20T02:28:50.715Z,91.8
2022-12-20T02:29:54.460Z,91.8
2022-12-20T02:30:57.613Z,91.9
2022-12-20T02:32:01.696Z,92
2022-12-20T02:33:04.294Z,91.9
2022-12-20T02:34:07.186Z,91.9
2022-12-20T02:35:09.398Z,92.1
2022-12-20T02:36:12.123Z,91.9
2022-12-20T02:37:15.478Z,91.9
2022-12-20T02:38:18.256Z,91.9
2022-12-20T02:39:21.885Z,91.9
2022-12-20T02:40:24.952Z,91.9
2022-12-20T02:41:28.351Z,91.9
2022-12-20T02:42:32.389Z,91.8
2022-12-20T02:43:34.848Z,91.8
2022-12-20T02:44:37.080Z,91.7
2022-12-20T02:45:40.456Z,91.8
2022-12-20T02:46:43.747Z,91.7
2022-12-20T02:47:46.556Z,91.8
2022-12-20T02:48:50.299Z,91.9
2022-12-20T02:49:53.709Z,91.9
2022-12-20T02:50:56.500Z,91.9
2022-12-20T02:51:59.602Z,91.8
2022-12-20T02:53:02.606Z,91.8
2022-12-20T02:54:06.080Z,91.7
2022-12-20T02:55:08.572Z,91.9
2022-12-20T02:56:11.965Z,91.9
2022-12-20T02:57:14.809Z,91.8
2022-12-20T02:58:17.520Z,92
2022-12-20T02:59:20.408Z,91.9
2022-12-20T03:00:23.792Z,91.9
2022-12-20T03:01:27.554Z,91.9
2022-12-20T03:02:31.786Z,91.9
2022-12-20T03:03:35.474Z,91.8
2022-12-20T03:04:38.463Z,91.9
2022-12-20T03:05:42.020Z,91.9
2022-12-20T03:06:45.120Z,91.9
2022-12-20T03:07:47.853Z,91.9
2022-12-20T03:08:51.023Z,91.8
2022-12-20T03:09:54.071Z,91.7
2022-12-20T03:10:57.077Z,91.8
2022-12-20T03:11:59.888Z,91.8
2022-12-20T03:13:03.353Z,92
2022-12-20T03:14:06.128Z,91.9
2022-12-20T03:15:08.941Z,91.9
2022-12-20T03:16:12.031Z,91.8
2022-12-20T03:17:15.558Z,91.9
2022-12-20T03:18:19.280Z,91.8
2022-12-20T03:19:22.334Z,91.8
2022-12-20T03:20:25.694Z,91.8
2022-12-20T03:21:28.830Z,91.8
2022-12-20T03:22:31.370Z,91.7
2022-12-20T03:23:34.115Z,91.6
2022-12-20T03:24:37.496Z,91.5
2022-12-20T03:25:40.534Z,91.6
2022-12-20T03:26:43.705Z,91.6
2022-12-20T03:27:46.912Z,91.7
2022-12-20T03:28:49.381Z,91.6
2022-12-20T03:29:52.399Z,91.6
2022-12-20T03:30:55.745Z,91.6
2022-12-20T03:31:59.330Z,91.7
2022-12-20T03:33:02.629Z,91.7
2022-12-20T03:34:05.851Z,91.8
2022-12-20T03:35:09.585Z,91.7
2022-12-20T03:36:12.809Z,91.8
2022-12-20T03:37:16.075Z,91.9
2022-12-20T03:38:19.481Z,91.9
2022-12-20T03:39:22.484Z,91.9
2022-12-20T03:40:25.906Z,91.9
2022-12-20T03:41:28.676Z,91.9
2022-12-20T03:42:31.404Z,92
2022-12-20T03:43:34.811Z,92.1
2022-12-20T03:44:37.306Z,92
2022-12-20T03:45:40.456Z,92
2022-12-20T03:46:43.482Z,91.9
2022-12-20T03:47:46.808Z,92
2022-12-20T03:48:50.221Z,92
2022-12-20T03:49:53.881Z,91.8
2022-12-20T03:50:56.779Z,91.7
2022-12-20T03:51:59.344Z,91.8
2022-12-20T03:53:03.082Z,91.8
2022-12-20T03:54:06.210Z,91.9
2022-12-20T03:55:09.860Z,91.9
2022-12-20T03:56:13.036Z,91.9
2022-12-20T03:57:16.053Z,91.8
2022-12-20T03:58:18.501Z,91.9
2022-12-20T03:59:22.517Z,91.9
2022-12-20T04:00:25.527Z,92
2022-12-20T04:01:29.112Z,92.1
2022-12-20T04:02:33.246Z,92.1
2022-12-20T04:03:37.344Z,92.2
2022-12-20T04:04:41.103Z,92.3
2022-12-20T04:05:44.516Z,92.2
2022-12-20T04:06:47.342Z,92.1
2022-12-20T04:07:50.613Z,92.2
2022-12-20T04:08:53.475Z,92.2
2022-12-20T04:09:55.935Z,92.2
2022-12-20T04:10:58.658Z,92
2022-12-20T04:12:01.764Z,92
2022-12-20T04:13:05.220Z,91.9
2022-12-20T04:14:08.562Z,91.8
2022-12-20T04:15:11.955Z,91.9
2022-12-20T04:16:15.437Z,91.8
2022-12-20T04:17:18.741Z,91.9
2022-12-20T04:18:21.823Z,91.8
2022-12-20T04:19:24.895Z,91.9
2022-12-20T04:20:28.643Z,92
2022-12-20T04:21:31.822Z,92.2
2022-12-20T04:22:35.113Z,92.3
2022-12-20T04:23:38.768Z,92.2
2022-12-20T04:24:42.839Z,92.1
2022-12-20T04:25:46.532Z,92
2022-12-20T04:26:49.312Z,92
2022-12-20T04:27:52.112Z,92
2022-12-20T04:28:55.215Z,92
2022-12-20T04:29:58.411Z,91.9
2022-12-20T04:31:01.013Z,92
2022-12-20T04:32:04.463Z,92
2022-12-20T04:33:07.959Z,91.9
2022-12-20T04:34:11.370Z,92
2022-12-20T04:35:13.914Z,91.8
2022-12-20T04:36:16.752Z,91.7
2022-12-20T04:37:20.194Z,91.8
2022-12-20T04:38:22.996Z,91.9
2022-12-20T04:39:25.426Z,91.8
2022-12-20T04:40:28.671Z,91.8
2022-12-20T04:41:31.683Z,91.8
2022-12-20T04:42:34.497Z,91.8
2022-12-20T04:43:37.426Z,91.7
2022-12-20T04:44:41.103Z,91.6
2022-12-20T04:45:44.202Z,91.5
2022-12-20T04:46:47.808Z,91.5
2022-12-20T04:47:51.510Z,91.5
2022-12-20T04:49:01.114Z,91.7
2022-12-20T04:50:04.596Z,91.7
2022-12-20T04:51:07.399Z,91.7
2022-12-20T04:52:10.743Z,91.7
2022-12-20T04:53:13.826Z,91.8
2022-12-20T04:54:17.511Z,91.7
2022-12-20T04:55:20.053Z,91.6
2022-12-20T04:56:22.963Z,91.6
2022-12-20T04:57:26.049Z,91.8
2022-12-20T04:58:28.256Z,91.7
2022-12-20T04:59:31.600Z,91.7
2022-12-20T05:00:34.068Z,91.7
2022-12-20T05:01:37.804Z,91.6
2022-12-20T05:02:42.833Z,91.6
2022-12-20T05:03:46.654Z,91.6
2022-12-20T05:04:50.039Z,91.5
2022-12-20T05:05:53.485Z,91.5
2022-12-20T05:06:56.732Z,91.5
2022-12-20T05:07:59.921Z,91.3
2022-12-20T05:09:03.302Z,91.2
2022-12-20T05:10:06.398Z,91.1
2022-12-20T05:11:09.783Z,91.2
2022-12-20T05:12:13.477Z,91.2
2022-12-20T05:13:15.649Z,91.3
2022-12-20T05:14:19.023Z,91.3
2022-12-20T05:15:22.653Z,91.3
2022-12-20T05:16:27.909Z,91.2
2022-12-20T05:17:30.860Z,91.4
2022-12-20T05:18:34.920Z,91.3
2022-12-20T05:19:38.040Z,91.2
2022-12-20T05:20:41.097Z,91.3
2022-12-20T05:21:43.824Z,91.2
2022-12-20T05:22:46.901Z,91.2
2022-12-20T05:23:50.013Z,91
2022-12-20T05:24:53.370Z,91.1
2022-12-20T05:25:56.451Z,91.1
2022-12-20T05:27:00.130Z,91.2
2022-12-20T05:28:04.275Z,91.2
2022-12-20T05:29:07.098Z,91.2
2022-12-20T05:30:09.966Z,91.2
2022-12-20T05:31:12.951Z,91.4
2022-12-20T05:32:16.203Z,91.4
2022-12-20T05:33:19.101Z,91.2
2022-12-20T05:34:22.393Z,91.2
2022-12-20T05:35:25.423Z,91.1
2022-12-20T05:36:28.545Z,91.1
2022-12-20T05:37:31.824Z,91
2022-12-20T05:38:34.597Z,91
2022-12-20T05:39:37.923Z,91.2
2022-12-20T05:40:40.448Z,91.2
2022-12-20T05:41:43.544Z,91.1
2022-12-20T05:42:47.262Z,91.1
2022-12-20T05:43:50.673Z,91.2
2022-12-20T05:44:53.005Z,91.2
2022-12-20T05:45:55.454Z,91.2
2022-12-20T05:46:59.545Z,91.2
2022-12-20T05:48:02.562Z,91.2
2022-12-20T05:49:06.011Z,91.2
2022-12-20T05:50:19.930Z,91.2
2022-12-20T05:51:23.100Z,91.1
2022-12-20T05:52:25.815Z,91.2
2022-12-20T05:53:29.155Z,91.1
2022-12-20T05:54:32.664Z,91.2
2022-12-20T05:55:35.831Z,91.1
2022-12-20T05:56:39.517Z,90.9
2022-12-20T05:57:43.071Z,90.9
2022-12-20T05:58:45.858Z,90.8
2022-12-20T05:59:49.908Z,90.9
2022-12-20T06:00:52.996Z,91
2022-12-20T06:01:57.516Z,91
2022-12-20T06:03:02.084Z,91.1
2022-12-20T06:04:05.838Z,91.2
2022-12-20T06:05:09.183Z,91.2
2022-12-20T06:06:16.647Z,91.6
2022-12-20T06:07:19.734Z,91.6
2022-12-20T06:08:22.675Z,91.6
2022-12-20T06:09:26.120Z,91.7
2022-12-20T06:10:28.968Z,91.8
2022-12-20T06:11:31.863Z,91.8
2022-12-20T06:12:36.006Z,91.8
2022-12-20T06:13:38.810Z,91.9
2022-12-20T06:14:41.833Z,91.9
2022-12-20T06:15:45.627Z,92.1
2022-12-20T06:16:49.114Z,92.4
2022-12-20T06:17:51.948Z,92.5
2022-12-20T06:18:54.658Z,92.6
2022-12-20T06:19:57.786Z,92.8
2022-12-20T06:21:01.431Z,92.9
2022-12-20T06:22:04.534Z,92.8
2022-12-20T06:23:07.969Z,93
2022-12-20T06:24:11.020Z,93
2022-12-20T06:25:14.534Z,93.1
2022-12-20T06:26:17.343Z,93.1
2022-12-20T06:27:20.552Z,93.1
2022-12-20T06:28:24.313Z,93.1
2022-12-20T06:29:27.612Z,93.1
2022-12-20T06:30:35.301Z,93.3
2022-12-20T06:31:39.259Z,93.4
2022-12-20T06:32:42.551Z,93.4
2022-12-20T06:33:45.630Z,93.4
2022-12-20T06:34:49.024Z,93.3
2022-12-20T06:35:51.796Z,93.3
2022-12-20T06:36:54.568Z,93.4
2022-12-20T06:37:57.347Z,93.5
2022-12-20T06:39:10.837Z,93.5
2022-12-20T06:40:14.634Z,93.5
2022-12-20T06:41:17.641Z,93.4
2022-12-20T06:42:20.548Z,93.3
2022-12-20T06:43:23.931Z,93.2
2022-12-20T06:44:26.462Z,93.3
2022-12-20T06:45:29.223Z,93.4
2022-12-20T06:46:39.226Z,93.5
2022-12-20T06:47:42.787Z,93.5
2022-12-20T06:48:46.211Z,93.7
2022-12-20T06:49:49.284Z,93.8
2022-12-20T06:50:57.538Z,94
2022-12-20T06:52:00.312Z,94.1
2022-12-20T06:53:03.213Z,94.1
2022-12-20T06:54:05.959Z,94.3
2022-12-20T06:55:09.462Z,94.6
2022-12-20T06:56:12.486Z,94.5
2022-12-20T06:57:15.748Z,94.6
2022-12-20T06:58:19.463Z,94.7
2022-12-20T06:59:23.001Z,94.8
2022-12-20T07:00:28.732Z,94.9
2022-12-20T07:01:32.377Z,95
2022-12-20T07:02:36.759Z,95.1
2022-12-20T07:03:41.561Z,95.2
2022-12-20T07:04:44.819Z,95.3
2022-12-20T07:05:47.247Z,95.3
2022-12-20T07:06:50.359Z,95.2
2022-12-20T07:07:53.811Z,95.2
2022-12-20T07:08:56.913Z,95.4
2022-12-20T07:09:59.984Z,95.5
2022-12-20T07:11:02.994Z,95.4
2022-12-20T07:12:06.478Z,95.3
2022-12-20T07:13:10.214Z,95.5
2022-12-20T07:14:13.093Z,95.5
2022-12-20T07:15:16.515Z,95.4
2022-12-20T07:16:20.736Z,95.7
2022-12-20T07:17:23.587Z,95.8
2022-12-20T07:18:28.899Z,95.8
2022-12-20T07:19:33.188Z,95.6
2022-12-20T07:20:35.658Z,95.7
2022-12-20T07:21:38.764Z,95.8
2022-12-20T07:22:42.361Z,95.8
2022-12-20T07:23:46.311Z,95.9
2022-12-20T07:24:50.011Z,96
2022-12-20T07:25:52.811Z,95.9
2022-12-20T07:26:56.315Z,95.8
2022-12-20T07:27:59.306Z,95.8
2022-12-20T07:29:02.387Z,95.7
2022-12-20T07:30:05.934Z,95.7
2022-12-20T07:31:09.285Z,95.7
2022-12-20T07:32:12.614Z,95.8
2022-12-20T07:33:15.865Z,95.8
2022-12-20T07:34:18.691Z,95.7
2022-12-20T07:35:22.384Z,95.8
2022-12-20T07:36:26.249Z,95.8
2022-12-20T07:37:29.896Z,95.8
2022-12-20T07:38:33.695Z,95.8
2022-12-20T07:39:37.247Z,95.8
2022-12-20T07:40:40.413Z,95.8
2022-12-20T07:41:43.001Z,95.8
2022-12-20T07:42:50.224Z,95.8
2022-12-20T07:43:53.681Z,95.7
2022-12-20T07:44:57.411Z,95.7
2022-12-20T07:46:01.887Z,95.7
2022-12-20T07:47:05.968Z,95.7
2022-12-20T07:48:22.371Z,95.6
2022-12-20T07:49:25.766Z,95.6
2022-12-20T07:50:29.822Z,95.5
2022-12-20T07:51:34.330Z,95.5
2022-12-20T07:52:37.616Z,95.5
2022-12-20T07:53:40.391Z,95.5
2022-12-20T07:54:42.832Z,95.4
2022-12-20T07:55:46.271Z,95.5
2022-12-20T07:56:50.085Z,95.5
2022-12-20T07:57:53.419Z,95.4
2022-12-20T07:58:55.979Z,95.4
2022-12-20T07:59:59.521Z,95.3
2022-12-20T08:01:03.612Z,95.3
2022-12-20T08:02:07.883Z,95.3
2022-12-20T08:03:13.200Z,95.3
2022-12-20T08:04:17.023Z,95.3
2022-12-20T08:05:20.305Z,95.3
2022-12-20T08:06:23.470Z,95.2
2022-12-20T08:07:28.192Z,95.2
2022-12-20T08:08:32.249Z,95.3
2022-12-20T08:09:35.710Z,95.3
2022-12-20T08:10:39.162Z,95.3
2022-12-20T08:11:42.835Z,95.3
2022-12-20T08:12:46.167Z,95.3
2022-12-20T08:13:59.027Z,95.3
2022-12-20T08:15:02.413Z,95.3
2022-12-20T08:16:05.840Z,95.2
2022-12-20T08:17:09.920Z,95.2
2022-12-20T08:18:13.423Z,95.3
2022-12-20T08:19:17.107Z,95.4
2022-12-20T08:20:20.914Z,95.4
2022-12-20T08:21:23.531Z,95.4
2022-12-20T08:22:27.021Z,95.5
2022-12-20T08:23:30.410Z,95.5
2022-12-20T08:24:33.907Z,95.5
2022-12-20T08:25:43.457Z,95.5
2022-12-20T08:26:46.748Z,95.5
2022-12-20T08:27:49.562Z,95.5
2022-12-20T08:28:52.932Z,95.5
2022-12-20T08:29:55.939Z,95.4
2022-12-20T08:30:58.605Z,95.5
2022-12-20T08:32:01.915Z,95.4
2022-12-20T08:33:05.673Z,95.4
2022-12-20T08:34:09.489Z,95.3
2022-12-20T08:35:13.067Z,95.3
2022-12-20T08:36:16.862Z,95.2
2022-12-20T08:37:19.595Z,95.2
2022-12-20T08:38:23.365Z,95.2
2022-12-20T08:39:26.131Z,95.2
2022-12-20T08:40:29.134Z,95.2
2022-12-20T08:41:32.975Z,95.2
2022-12-20T08:42:35.711Z,95.1
2022-12-20T08:43:40.853Z,95.2
2022-12-20T08:44:44.811Z,95.1
2022-12-20T08:45:48.746Z,95.1
2022-12-20T08:46:51.623Z,95.1
2022-12-20T08:47:54.989Z,95
2022-12-20T08:48:58.383Z,95.1
2022-12-20T08:50:02.308Z,95.2
2022-12-20T08:51:06.586Z,95.1
2022-12-20T08:52:10.460Z,95.1
2022-12-20T08:53:13.269Z,95.1
2022-12-20T08:54:16.437Z,95.2
2022-12-20T08:55:30.212Z,95.1
2022-12-20T08:56:33.532Z,95
2022-12-20T08:57:37.004Z,95
2022-12-20T08:58:40.713Z,94.9
2022-12-20T08:59:43.526Z,94.9
2022-12-20T09:00:46.230Z,95
2022-12-20T09:01:49.971Z,95
2022-12-20T09:02:54.852Z,95.1
2022-12-20T09:03:59.051Z,95.1
2022-12-20T09:05:02.712Z,95.2
2022-12-20T09:06:06.138Z,95.1
2022-12-20T09:07:09.953Z,95.1
2022-12-20T09:08:13.595Z,95.1
2022-12-20T09:09:16.127Z,95
2022-12-20T09:10:20.003Z,95.1
2022-12-20T09:11:23.649Z,95
2022-12-20T09:12:26.802Z,95.1
2022-12-20T09:13:30.652Z,94.9
2022-12-20T09:14:34.010Z,94.9
2022-12-20T09:15:37.870Z,95
2022-12-20T09:16:41.420Z,95
2022-12-20T09:17:44.570Z,95
2022-12-20T09:18:47.159Z,95
2022-12-20T09:19:50.887Z,95
2022-12-20T09:20:54.012Z,95
2022-12-20T09:21:57.097Z,95.1
2022-12-20T09:23:00.689Z,95
2022-12-20T09:24:03.503Z,95
2022-12-20T09:25:06.886Z,95
2022-12-20T09:26:10.060Z,95
2022-12-20T09:27:12.879Z,95.1
2022-12-20T09:28:15.941Z,95.1
2022-12-20T09:29:36.415Z,95.2
2022-12-20T09:30:40.676Z,95.2
2022-12-20T09:31:45.824Z,95.2
2022-12-20T09:32:48.857Z,95.2
2022-12-20T09:33:51.604Z,95.3
2022-12-20T09:34:54.973Z,95.4
2022-12-20T09:35:57.557Z,95.5
2022-12-20T09:37:01.069Z,95.4
2022-12-20T09:38:04.280Z,95.5
2022-12-20T09:39:07.929Z,95.5
2022-12-20T09:40:11.576Z,95.5
2022-12-20T09:41:23.833Z,95.5
2022-12-20T09:42:27.175Z,95.4
2022-12-20T09:43:30.706Z,95.4
2022-12-20T09:44:34.071Z,95.5
2022-12-20T09:45:36.779Z,95.5
2022-12-20T09:46:40.823Z,95.5
2022-12-20T09:47:44.337Z,95.5
2022-12-20T09:48:47.708Z,95.5
2022-12-20T09:49:50.524Z,95.5
2022-12-20T09:50:53.638Z,95.5
2022-12-20T09:51:57.118Z,95.5
2022-12-20T09:52:59.869Z,95.5
2022-12-20T09:54:03.566Z,95.4
2022-12-20T09:55:06.912Z,95.4
2022-12-20T09:56:10.352Z,95.4
2022-12-20T09:57:14.035Z,95.4
2022-12-20T09:58:17.148Z,95.3
2022-12-20T09:59:20.637Z,95.3
2022-12-20T10:00:24.209Z,95.2
2022-12-20T10:01:41.149Z,95.2
2022-12-20T10:03:12.826Z,95.2
2022-12-20T10:04:18.432Z,95.3
2022-12-20T10:05:23.657Z,95.3
2022-12-20T10:06:27.478Z,95.3
2022-12-20T10:07:31.244Z,95.2
2022-12-20T10:08:34.582Z,95.3
2022-12-20T10:09:38.018Z,95.3
2022-12-20T10:10:41.044Z,95.2
2022-12-20T10:11:52.148Z,95.2
2022-12-20T10:12:55.891Z,95.2
2022-12-20T10:13:59.617Z,95.2
2022-12-20T10:15:03.409Z,95.2
2022-12-20T10:16:06.394Z,95.2
2022-12-20T10:17:09.944Z,95.2
2022-12-20T10:18:13.395Z,95.2
2022-12-20T10:19:16.504Z,95.2
2022-12-20T10:20:19.619Z,95.3
2022-12-20T10:21:22.758Z,95.2
2022-12-20T10:22:25.855Z,95.1
2022-12-20T10:23:34.669Z,95.1
2022-12-20T10:24:37.490Z,95
2022-12-20T10:25:40.928Z,95
2022-12-20T10:26:43.141Z,95
2022-12-20T10:27:46.276Z,95
2022-12-20T10:28:55.541Z,95
2022-12-20T10:29:58.733Z,95
2022-12-20T10:31:03.007Z,95.1
2022-12-20T10:32:05.884Z,95
2022-12-20T10:33:09.597Z,94.9
2022-12-20T10:34:12.047Z,94.9
2022-12-20T10:35:15.709Z,95
2022-12-20T10:36:19.088Z,95
2022-12-20T10:37:22.494Z,94.9
2022-12-20T10:38:24.935Z,94.9
2022-12-20T10:39:28.421Z,94.8
2022-12-20T10:41:23.974Z,94.7
2022-12-20T10:42:27.729Z,94.7
2022-12-20T10:43:31.746Z,94.7
2022-12-20T10:44:34.960Z,94.6
2022-12-20T10:45:38.071Z,94.5
2022-12-20T10:46:42.329Z,94.4
2022-12-20T10:47:46.195Z,94.4
2022-12-20T10:48:49.345Z,94.3
2022-12-20T10:49:52.057Z,94.2
2022-12-20T10:50:55.183Z,94.2
2022-12-20T10:51:59.459Z,94.1
2022-12-20T10:53:02.939Z,94.1
2022-12-20T10:54:07.049Z,94.1
2022-12-20T10:55:10.126Z,94.1
2022-12-20T10:56:13.124Z,94.1
2022-12-20T10:57:16.832Z,94.1
2022-12-20T10:58:20.865Z,94
2022-12-20T10:59:24.379Z,93.9
2022-12-20T11:00:28.165Z,93.8
2022-12-20T11:01:31.973Z,93.7
2022-12-20T11:02:44.894Z,93.6
2022-12-20T11:03:50.436Z,93.4
2022-12-20T11:04:54.156Z,93.4
2022-12-20T11:05:57.351Z,93.3
2022-12-20T11:07:00.728Z,93.2
2022-12-20T11:08:58.821Z,93.1
2022-12-20T11:10:04.278Z,92.8
2022-12-20T11:11:07.496Z,92.8
2022-12-20T11:12:10.837Z,92.9
2022-12-20T11:13:14.539Z,92.9
2022-12-20T11:14:18.652Z,93
2022-12-20T11:15:35.894Z,92.8
2022-12-20T11:16:41.173Z,92.7
2022-12-20T11:17:45.343Z,92.6
2022-12-20T11:18:48.586Z,92.6
2022-12-20T11:19:52.030Z,92.5
2022-12-20T11:20:54.740Z,92.5
2022-12-20T11:21:58.032Z,92.4
2022-12-20T11:23:01.543Z,92.3
2022-12-20T11:24:05.346Z,92.2
2022-12-20T11:25:08.457Z,92.2
2022-12-20T11:26:12.151Z,92.2
2022-12-20T11:27:17.392Z,92.3
2022-12-20T11:28:21.514Z,92.2
2022-12-20T11:29:24.957Z,92.2
2022-12-20T11:30:28.126Z,92.1
2022-12-20T11:31:32.105Z,92
2022-12-20T11:32:35.110Z,92.1
2022-12-20T11:33:38.933Z,92.1
2022-12-20T11:34:42.024Z,92
2022-12-20T11:35:45.406Z,92
2022-12-20T11:36:47.875Z,92
2022-12-20T11:37:51.146Z,92
2022-12-20T11:38:54.432Z,91.9
2022-12-20T11:39:57.801Z,91.9
2022-12-20T11:41:01.527Z,92
2022-12-20T11:42:05.618Z,91.9
2022-12-20T11:43:08.407Z,92
2022-12-20T11:44:29.076Z,91.9
2022-12-20T11:45:32.706Z,91.9
2022-12-20T11:46:36.278Z,91.9
2022-12-20T11:47:39.824Z,91.9
2022-12-20T11:48:43.568Z,91.8
2022-12-20T11:49:46.296Z,91.8
2022-12-20T11:50:50.104Z,91.9
2022-12-20T11:51:53.488Z,91.8
2022-12-20T11:52:56.604Z,91.8
2022-12-20T11:53:59.657Z,91.8
2022-12-20T11:55:03.305Z,91.9
2022-12-20T11:56:06.055Z,91.8
2022-12-20T11:57:09.335Z,91.7
2022-12-20T11:58:22.070Z,91.8
2022-12-20T11:59:25.450Z,91.8
2022-12-20T12:00:29.255Z,91.7
2022-12-20T12:01:32.885Z,91.7
2022-12-20T12:02:37.690Z,91.6
2022-12-20T12:03:41.590Z,91.6
2022-12-20T12:04:45.563Z,91.6
2022-12-20T12:05:49.012Z,91.6
2022-12-20T12:06:51.910Z,91.6
2022-12-20T12:07:55.719Z,91.6
2022-12-20T12:08:59.541Z,91.7
2022-12-20T12:10:02.934Z,91.7
2022-12-20T12:11:06.353Z,91.6
2022-12-20T12:12:11.261Z,91.6
2022-12-20T12:13:14.700Z,91.5
2022-12-20T12:14:18.104Z,91.5
2022-12-20T12:15:21.464Z,91.4
2022-12-20T12:16:25.355Z,91.2
2022-12-20T12:17:29.314Z,91.2
2022-12-20T12:18:32.447Z,91.2
2022-12-20T12:19:36.199Z,91.2
2022-12-20T12:20:39.650Z,91.2
2022-12-20T12:21:42.760Z,91.1
2022-12-20T12:22:45.511Z,91.1
2022-12-20T12:23:48.557Z,91.1
2022-12-20T12:24:51.932Z,91.2
2022-12-20T12:25:55.743Z,91.1
2022-12-20T12:26:59.551Z,91.1
2022-12-20T12:28:03.354Z,91
2022-12-20T12:29:07.061Z,91
2022-12-20T12:30:09.944Z,91
2022-12-20T12:31:12.783Z,90.9
2022-12-20T12:32:16.685Z,90.9
2022-12-20T12:33:26.786Z,90.8
2022-12-20T12:34:41.901Z,90.8
2022-12-20T12:35:45.457Z,91.2
2022-12-20T12:36:49.122Z,91.1
2022-12-20T12:37:52.568Z,89.6
2022-12-20T12:39:03.972Z,89.2
2022-12-20T12:40:08.006Z,89.1
2022-12-20T12:41:11.302Z,89.1
2022-12-20T12:42:14.733Z,89.1
2022-12-20T12:43:18.372Z,89.1
2022-12-20T12:44:21.853Z,89.5
2022-12-20T12:45:24.843Z,89.6
2022-12-20T12:46:28.797Z,89.6
2022-12-20T12:47:32.754Z,89.8
2022-12-20T12:48:36.458Z,89.8
2022-12-20T12:49:39.855Z,89.9
2022-12-20T12:50:43.719Z,90
2022-12-20T12:51:46.996Z,90
2022-12-20T12:52:50.452Z,90.9
2022-12-20T12:53:53.847Z,90
2022-12-20T12:54:56.568Z,89.6
2022-12-20T12:56:46.961Z,89.4
2022-12-20T12:57:51.534Z,89.5
2022-12-20T12:58:55.207Z,89.7
2022-12-20T12:59:59.026Z,89.8
2022-12-20T13:01:02.490Z,89.8
2022-12-20T13:02:07.043Z,89.7
2022-12-20T13:03:11.720Z,89.7
2022-12-20T13:04:15.798Z,89.6
2022-12-20T13:05:27.329Z,89.7
2022-12-20T13:06:31.112Z,89.7
2022-12-20T13:07:33.993Z,89.6
2022-12-20T13:08:37.887Z,89.7
2022-12-20T13:09:41.267Z,89.5
2022-12-20T13:10:45.040Z,89.5
2022-12-20T13:12:11.673Z,89.6
2022-12-20T13:13:15.762Z,89.5
2022-12-20T13:14:18.271Z,89.6
2022-12-20T13:15:22.046Z,89.5
2022-12-20T13:17:22.314Z,89.5
2022-12-20T13:18:30.375Z,89.5
2022-12-20T13:19:34.188Z,89.4
2022-12-20T13:20:37.958Z,89.5
2022-12-20T13:21:41.714Z,89.5
2022-12-20T13:22:45.083Z,89.6
2022-12-20T13:23:48.471Z,89.7
2022-12-20T13:24:52.172Z,89.6
2022-12-20T13:25:55.477Z,89.7
2022-12-20T13:26:58.215Z,89.7
2022-12-20T13:28:11.705Z,89.7
2022-12-20T13:29:15.391Z,89.6
2022-12-20T13:30:19.101Z,89.6
2022-12-20T13:31:23.122Z,89.7
2022-12-20T13:32:26.965Z,89.7
2022-12-20T13:33:29.797Z,89.7
2022-12-20T13:34:32.715Z,89.6
2022-12-20T13:35:36.840Z,89.5
2022-12-20T13:36:40.279Z,89.5
2022-12-20T13:37:46.247Z,89.4
2022-12-20T13:38:58.214Z,89.5
2022-12-20T13:40:02.020Z,89.5
2022-12-20T13:41:05.089Z,89.4
2022-12-20T13:42:08.106Z,89.3
2022-12-20T13:43:11.259Z,89.2
2022-12-20T13:44:14.668Z,89.2
2022-12-20T13:45:18.490Z,89.4
2022-12-20T13:46:21.957Z,89.4
2022-12-20T13:47:25.016Z,89.3
2022-12-20T13:48:27.578Z,89.3
2022-12-20T13:49:30.923Z,89.2
2022-12-20T13:50:34.414Z,89.3
2022-12-20T13:51:38.122Z,89.4
2022-12-20T13:52:41.210Z,89.4
2022-12-20T13:53:45.060Z,89.4
2022-12-20T13:54:48.947Z,89.4
2022-12-20T13:55:52.789Z,89.4
2022-12-20T13:56:56.463Z,89.5
2022-12-20T13:57:59.916Z,89.5
2022-12-20T13:59:02.351Z,89.5
2022-12-20T14:00:09.228Z,89.6
2022-12-20T14:01:13.236Z,89.7
2022-12-20T14:02:17.692Z,89.7
2022-12-20T14:03:22.490Z,89.8
2022-12-20T14:04:27.109Z,89.8
2022-12-20T14:05:29.802Z,89.9
2022-12-20T14:06:33.227Z,89.9
2022-12-20T14:07:36.957Z,89.9
2022-12-20T14:08:40.434Z,89.8
2022-12-20T14:09:44.243Z,89.7
2022-12-20T14:10:47.888Z,89.7
2022-12-20T14:11:51.408Z,89.5
2022-12-20T14:12:55.151Z,89.5
2022-12-20T14:13:58.541Z,89.4
2022-12-20T14:15:01.907Z,89.5
2022-12-20T14:16:05.259Z,89.5
2022-12-20T14:17:08.882Z,89.6
2022-12-20T14:18:13.189Z,89.5
2022-12-20T14:19:16.918Z,89.6